Time;durP1;ratioP1;P1;durP2;ratioP2;P2;SDS_P1;SDS_P2;PMS_P1;PMS_P2;Temp;Humidity;BMP_temperature;BMP_pressure;BME280_temperature;BME280_humidity;BME280_pressure;Samples;Min_cycle;Max_cycle;Signal;HPM_P1;HPM_P2
2021/12/07 00:01:43;;;;;;;24.92;14.13;;;2.80;99.90;;;;;;5009387;28;20116;-84
2021/12/07 00:04:13;;;;;;;24.50;14.23;;;2.80;99.90;;;;;;5044633;28;20028;-83
2021/12/07 00:06:39;;;;;;;24.42;13.98;;;2.80;99.90;;;;;;5061375;28;20021;-83
2021/12/07 00:09:08;;;;;;;26.45;14.65;;;2.80;99.90;;;;;;5046617;28;20092;-83
2021/12/07 00:11:34;;;;;;;24.38;13.85;;;2.80;99.90;;;;;;5047368;28;20025;-83
2021/12/07 00:14:10;;;;;;;24.58;13.70;;;;;;;;;;5045481;28;20275;-83
2021/12/07 00:16:36;;;;;;;23.63;13.55;;;2.80;99.90;;;;;;5026061;28;20045;-83
2021/12/07 00:19:02;;;;;;;23.23;13.80;;;3.60;99.90;;;;;;5055788;28;20326;-83
2021/12/07 00:21:28;;;;;;;23.13;13.65;;;2.70;99.90;;;;;;5045999;28;20238;-84
2021/12/07 00:23:54;;;;;;;24.48;13.45;;;2.70;99.90;;;;;;5065713;28;20015;-84
2021/12/07 00:26:20;;;;;;;23.08;13.95;;;2.60;99.90;;;;;;5064316;28;20024;-83
2021/12/07 00:28:58;;;;;;;23.33;13.38;;;;;;;;;;5011486;28;20022;-83
2021/12/07 00:31:29;;;;;;;25.75;14.73;;;2.70;99.90;;;;;;5040295;28;20033;-84
2021/12/07 00:36:54;;;;;;;21.63;12.88;;;4.30;99.90;;;;;;5064488;28;20037;-85
2021/12/07 00:39:24;;;;;;;24.48;13.68;;;2.20;99.90;;;;;;5064038;28;20051;-84
2021/12/07 00:42:01;;;;;;;22.25;13.75;;;3.80;99.90;;;;;;5046290;28;20017;-83
2021/12/07 00:44:33;;;;;;;24.73;14.32;;;4.20;99.90;;;;;;5046768;28;20024;-84
2021/12/07 00:46:58;;;;;;;22.63;13.55;;;2.50;99.90;;;;;;5047226;28;20052;-84
2021/12/07 00:49:27;;;;;;;24.05;13.88;;;2.80;99.90;;;;;;5046251;28;20114;-84
2021/12/07 00:52:03;;;;;;;25.27;14.65;;;2.50;99.90;;;;;;5027124;28;20029;-84
2021/12/07 00:54:29;;;;;;;23.63;14.20;;;2.50;99.90;;;;;;5044341;28;20311;-84
2021/12/07 00:56:57;;;;;;;24.20;13.43;;;2.50;99.90;;;;;;5063645;28;20028;-84
2021/12/07 00:59:33;;;;;;;23.60;14.60;;;2.50;99.90;;;;;;5047170;28;20023;-83
2021/12/07 01:02:05;;;;;;;23.60;14.02;;;2.50;99.90;;;;;;5062804;28;20029;-84
2021/12/07 01:04:32;;;;;;;21.70;13.15;;;;;;;;;;5063281;28;20226;-84
2021/12/07 01:07:05;;;;;;;23.50;13.52;;;2.40;99.90;;;;;;5061581;28;20048;-84
2021/12/07 01:24:38;;;;;;;23.00;13.40;;;2.40;99.90;;;;;;5063035;28;20021;-84
2021/12/07 01:26:30;;;;;;;21.52;13.10;;;;;;;;;;5062983;28;20061;-84
2021/12/07 01:29:08;;;;;;;25.08;14.10;;;;;;;;;;5063162;28;20079;-85
2021/12/07 01:31:49;;;;;;;22.02;13.13;;;;;;;;;;5045910;28;20322;-84
2021/12/07 01:46:23;;;;;;;22.70;12.90;;;;;;;;;;5044190;28;20021;-85
2021/12/07 02:00:07;;;;;;;22.63;12.70;;;1.60;99.90;;;;;;5055715;28;20032;-84
2021/12/07 02:02:44;;;;;;;20.73;12.70;;;;;;;;;;5054323;28;20298;-85
2021/12/07 02:05:11;;;;;;;22.25;12.65;;;1.60;99.90;;;;;;5062229;28;20017;-84
2021/12/07 02:07:38;;;;;;;22.42;13.57;;;1.60;99.90;;;;;;5045820;28;20251;-84
2021/12/07 02:10:14;;;;;;;24.15;13.02;;;3.40;99.90;;;;;;5062202;28;20164;-85
2021/12/07 02:12:46;;;;;;;21.95;13.38;;;1.70;99.90;;;;;;5019355;28;20021;-85
2021/12/07 02:15:20;;;;;;;23.30;13.65;;;1.60;99.90;;;;;;5045227;28;20038;-85
2021/12/07 02:17:52;;;;;;;20.50;11.77;;;1.60;99.90;;;;;;5045582;28;20020;-86
2021/12/07 02:20:27;;;;;;;22.52;13.20;;;1.30;99.90;;;;;;5044828;28;20036;-85
2021/12/07 02:22:53;;;;;;;22.65;12.88;;;0.60;99.90;;;;;;5046900;28;20148;-85
2021/12/07 02:25:19;;;;;;;18.75;11.50;;;3.20;99.90;;;;;;5062192;28;20041;-84
2021/12/07 02:27:47;;;;;;;20.35;12.18;;;1.50;99.90;;;;;;5061685;28;20294;-84
2021/12/07 02:30:17;;;;;;;19.05;11.65;;;2.00;99.90;;;;;;5043739;28;20104;-85
2021/12/07 02:32:46;;;;;;;21.25;12.48;;;1.70;99.90;;;;;;5044896;28;20021;-84
2021/12/07 02:35:21;;;;;;;23.80;13.43;;;0.40;99.90;;;;;;5062133;28;20156;-85
2021/12/07 02:37:47;;;;;;;20.48;11.73;;;1.50;99.90;;;;;;5043882;28;20024;-85
2021/12/07 02:40:13;;;;;;;22.27;12.43;;;2.80;99.90;;;;;;5060687;28;20040;-84
2021/12/07 02:42:39;;;;;;;19.92;11.40;;;1.50;99.90;;;;;;5045561;28;20323;-85
2021/12/07 02:45:10;;;;;;;20.17;12.70;;;2.20;99.90;;;;;;5045141;28;20020;-85
2021/12/07 02:47:37;;;;;;;20.20;12.10;;;1.70;99.90;;;;;;5060551;28;20078;-85
2021/12/07 02:50:05;;;;;;;21.20;12.20;;;2.30;99.90;;;;;;5053809;28;20038;-84
2021/12/07 02:52:31;;;;;;;21.15;12.15;;;1.70;99.90;;;;;;5060090;28;20044;-85
2021/12/07 02:55:00;;;;;;;18.45;11.38;;;2.70;99.90;;;;;;5045431;28;20113;-84
2021/12/07 02:57:26;;;;;;;20.38;12.43;;;1.50;99.90;;;;;;5044991;28;20035;-84
2021/12/07 03:00:05;;;;;;;19.75;12.00;;;2.60;99.90;;;;;;5057289;28;20044;-84
2021/12/07 03:02:44;;;;;;;23.02;11.93;;;1.80;99.90;;;;;;5061706;28;20065;-84
2021/12/07 03:05:47;;;;;;;21.33;12.75;;;1.80;99.90;;;;;;5045061;28;20033;-84
2021/12/07 03:09:11;;;;;;;19.30;12.02;;;1.80;99.90;;;;;;5058396;28;20238;-84
2021/12/07 03:28:09;;;;;;;20.23;12.48;;;1.90;99.90;;;;;;5046748;28;20276;-84
2021/12/07 03:30:40;;;;;;;20.05;12.55;;;2.00;99.90;;;;;;5044216;28;20028;-84
2021/12/07 03:33:07;;;;;;;20.70;12.65;;;2.00;99.90;;;;;;5044304;28;20029;-84
2021/12/07 03:35:37;;;;;;;21.27;13.25;;;1.90;99.90;;;;;;5044871;28;20289;-84
2021/12/07 03:38:04;;;;;;;21.67;13.50;;;2.00;99.90;;;;;;5061105;28;20040;-84
2021/12/07 03:40:30;;;;;;;21.10;13.15;;;2.40;99.90;;;;;;5028051;28;20021;-84
2021/12/07 03:43:03;;;;;;;20.33;13.00;;;2.00;99.90;;;;;;5062000;28;20032;-84
2021/12/07 03:45:32;;;;;;;20.75;12.75;;;2.00;99.90;;;;;;5048559;28;20029;-85
2021/12/07 03:47:58;;;;;;;20.77;12.70;;;;;;;;;;5065098;28;20044;-84
2021/12/07 03:50:30;;;;;;;20.90;13.20;;;2.00;99.90;;;;;;5045193;28;20026;-84
2021/12/07 03:53:03;;;;;;;21.13;13.63;;;1.90;99.90;;;;;;5032331;28;20032;-84
2021/12/07 03:55:32;;;;;;;22.30;13.55;;;1.90;99.90;;;;;;5031817;28;20087;-85
2021/12/07 03:57:58;;;;;;;20.77;13.10;;;1.90;99.90;;;;;;5065052;28;20319;-85
2021/12/07 04:00:28;;;;;;;22.55;13.98;;;2.00;99.90;;;;;;5063455;28;20108;-84
2021/12/07 04:02:55;;;;;;;22.80;14.02;;;2.30;99.90;;;;;;5066091;28;20027;-84
2021/12/07 04:05:23;;;;;;;21.77;13.48;;;3.20;99.90;;;;;;5064171;28;20033;-84
2021/12/07 04:07:50;;;;;;;23.20;14.48;;;2.80;99.90;;;;;;5048063;28;20024;-84
2021/12/07 04:10:22;;;;;;;22.55;14.27;;;3.50;99.90;;;;;;5047953;28;20073;-84
2021/12/07 04:12:49;;;;;;;21.92;13.95;;;3.10;99.90;;;;;;5064659;28;20032;-84
2021/12/07 04:15:17;;;;;;;21.52;12.85;;;2.60;99.90;;;;;;5047526;28;20025;-84
2021/12/07 04:17:52;;;;;;;22.63;13.10;;;2.00;99.90;;;;;;5064235;28;20092;-84
2021/12/07 04:20:21;;;;;;;23.05;13.98;;;2.90;99.90;;;;;;5064886;28;20074;-84
2021/12/07 04:22:50;;;;;;;21.42;13.35;;;2.00;99.90;;;;;;5043220;28;20021;-85
2021/12/07 04:25:18;;;;;;;21.75;13.70;;;2.00;99.90;;;;;;5063697;28;20036;-84
2021/12/07 04:27:44;;;;;;;22.02;13.90;;;2.00;99.90;;;;;;5047042;28;20045;-84
2021/12/07 04:30:32;;;;;;;23.50;13.02;;;2.00;99.90;;;;;;5065344;28;20267;-84
2021/12/07 04:33:07;;;;;;;22.27;13.77;;;2.00;99.90;;;;;;5073332;28;20022;-85
2021/12/07 04:35:42;;;;;;;21.38;12.45;;;1.90;99.90;;;;;;5032213;28;20045;-85
2021/12/07 04:38:08;;;;;;;21.98;13.18;;;1.90;99.90;;;;;;5045047;28;20025;-84
2021/12/07 04:40:34;;;;;;;21.95;13.07;;;2.30;99.90;;;;;;5047603;28;20070;-85
2021/12/07 04:43:01;;;;;;;20.58;12.90;;;1.90;99.90;;;;;;5074404;28;20024;-85
2021/12/07 04:59:09;;;;;;;22.20;12.68;;;1.70;99.90;;;;;;5060119;28;20152;-84
2021/12/07 05:01:35;;;;;;;22.65;12.70;;;1.70;99.90;;;;;;5055580;28;20029;-83
2021/12/07 05:04:08;;;;;;;20.92;11.85;;;2.00;99.90;;;;;;5029594;28;20045;-83
2021/12/07 05:06:44;;;;;;;20.73;12.10;;;1.70;99.90;;;;;;5063721;28;20079;-84
2021/12/07 05:09:36;;;;;;;19.85;11.52;;;1.70;99.90;;;;;;5031628;28;20409;-83
2021/12/07 05:12:20;;;;;;;20.65;12.15;;;1.70;99.90;;;;;;5063424;28;20025;-83
2021/12/07 05:14:58;;;;;;;24.63;13.05;;;1.70;99.90;;;;;;5012864;28;20024;-83
2021/12/07 05:39:38;;;;;;;21.65;10.75;;;1.70;99.90;;;;;;5062882;28;20141;-82
2021/12/07 05:42:04;;;;;;;19.92;10.43;;;1.70;99.90;;;;;;5046266;28;20104;-82
2021/12/07 05:44:33;;;;;;;21.08;11.27;;;0.10;99.90;;;;;;5028129;28;20097;-82
2021/12/07 05:47:03;;;;;;;22.52;11.65;;;2.30;99.90;;;;;;5009557;28;20038;-82
2021/12/07 05:49:29;;;;;;;19.85;10.95;;;1.70;99.90;;;;;;5061019;28;20180;-82
2021/12/07 05:51:55;;;;;;;20.80;11.20;;;3.40;99.90;;;;;;5062903;28;20167;-82
2021/12/07 05:54:21;;;;;;;19.77;10.65;;;1.70;99.90;;;;;;5045270;28;20335;-82
2021/12/07 05:56:47;;;;;;;21.60;10.73;;;1.70;99.90;;;;;;5062620;28;20028;-82
2021/12/07 05:59:14;;;;;;;20.10;10.75;;;1.70;99.90;;;;;;5065907;28;20043;-83
2021/12/07 06:01:46;;;;;;;21.90;10.73;;;;;;;;;;5043409;28;20025;-83
2021/12/07 06:04:13;;;;;;;21.35;10.68;;;1.80;99.90;;;;;;5061817;28;20037;-82
2021/12/07 06:06:39;;;;;;;18.55;10.02;;;2.90;99.90;;;;;;5043189;28;21471;-82
2021/12/07 06:09:06;;;;;;;19.52;10.15;;;;;;;;;;5050110;28;20096;-82
2021/12/07 06:11:38;;;;;;;24.00;10.25;;;1.80;99.90;;;;;;5062883;28;20179;-82
2021/12/07 06:14:06;;;;;;;18.67;9.73;;;1.80;99.90;;;;;;5030394;28;20051;-82
2021/12/07 06:16:32;;;;;;;20.58;9.25;;;1.90;99.90;;;;;;5045233;28;20025;-82
2021/12/07 06:18:58;;;;;;;20.52;9.63;;;3.30;99.90;;;;;;5029201;28;20043;-82
2021/12/07 06:21:26;;;;;;;20.13;9.65;;;1.80;99.90;;;;;;5059304;28;20009;-82
2021/12/07 06:23:52;;;;;;;21.02;10.10;;;2.00;99.90;;;;;;5062526;28;20067;-83
2021/12/07 06:26:19;;;;;;;18.85;9.90;;;1.90;99.90;;;;;;5044717;28;20267;-83
2021/12/07 06:28:48;;;;;;;18.38;8.85;;;1.90;99.90;;;;;;5045465;28;20017;-82
2021/12/07 06:31:16;;;;;;;17.08;8.77;;;1.80;99.90;;;;;;5044747;28;20025;-82
2021/12/07 06:33:44;;;;;;;19.85;9.35;;;1.90;99.90;;;;;;5044089;28;20020;-83
2021/12/07 06:36:12;;;;;;;20.17;9.20;;;1.90;99.90;;;;;;5043968;28;20060;-83
2021/12/07 06:38:38;;;;;;;18.15;8.75;;;1.90;99.90;;;;;;5045481;28;20025;-83
2021/12/07 06:41:04;;;;;;;20.92;9.70;;;1.90;99.90;;;;;;5045435;28;20039;-83
2021/12/07 06:43:33;;;;;;;17.05;8.40;;;3.00;99.90;;;;;;5058531;28;20095;-82
2021/12/07 06:46:02;;;;;;;16.38;8.73;;;1.90;99.90;;;;;;5045512;28;20175;-83
2021/12/07 06:48:29;;;;;;;19.55;7.75;;;3.60;99.90;;;;;;5063011;28;20072;-83
2021/12/07 06:50:59;;;;;;;22.00;8.57;;;1.90;99.90;;;;;;5045350;28;20021;-85
2021/12/07 06:53:25;;;;;;;18.73;8.50;;;2.00;99.90;;;;;;5061336;28;20183;-84
2021/12/07 06:56:09;;;;;;;18.10;8.07;;;;;;;;;;5061693;28;20025;-84
2021/12/07 06:58:35;;;;;;;22.83;8.05;;;4.50;99.90;;;;;;5045387;28;20263;-85
2021/12/07 07:01:06;;;;;;;17.08;8.30;;;2.10;99.90;;;;;;5062798;28;20032;-84
2021/12/07 07:03:32;;;;;;;18.00;8.07;;;2.10;99.90;;;;;;5061226;28;20185;-85
2021/12/07 07:06:04;;;;;;;18.73;8.15;;;2.10;99.90;;;;;;5061280;28;20025;-84
2021/12/07 07:08:33;;;;;;;18.50;7.88;;;2.10;99.90;;;;;;5057677;28;20092;-84
2021/12/07 07:11:02;;;;;;;17.10;7.50;;;2.10;99.90;;;;;;5029448;28;20141;-83
2021/12/07 07:13:27;;;;;;;16.58;8.02;;;3.90;99.90;;;;;;5061085;28;20079;-84
2021/12/07 07:15:56;;;;;;;16.83;7.88;;;2.10;99.90;;;;;;5028460;28;20210;-84
2021/12/07 07:18:22;;;;;;;16.92;8.27;;;2.20;99.90;;;;;;5031056;28;20093;-85
2021/12/07 07:20:51;;;;;;;16.02;8.00;;;2.60;99.90;;;;;;5061175;28;20024;-84
2021/12/07 07:23:17;;;;;;;16.38;7.78;;;2.20;99.90;;;;;;5058329;28;20037;-85
2021/12/07 07:25:43;;;;;;;17.92;8.45;;;2.20;99.90;;;;;;5064339;28;20104;-85
2021/12/07 07:28:09;;;;;;;19.73;8.23;;;2.20;99.90;;;;;;5044593;28;20017;-85
2021/12/07 07:30:35;;;;;;;18.13;8.95;;;2.30;99.90;;;;;;5065231;28;20017;-85
2021/12/07 07:33:11;;;;;;;16.52;7.70;;;2.30;99.90;;;;;;5048450;28;20021;-84
2021/12/07 07:35:37;;;;;;;18.17;8.02;;;2.30;99.90;;;;;;5065572;28;20084;-83
2021/12/07 07:38:04;;;;;;;16.27;8.20;;;2.40;99.90;;;;;;5065076;28;20021;-84
2021/12/07 07:40:29;;;;;;;18.67;8.32;;;2.40;99.90;;;;;;5031347;28;20061;-84
2021/12/07 07:43:01;;;;;;;16.42;7.90;;;2.40;99.90;;;;;;5048834;28;20086;-83
2021/12/07 07:45:28;;;;;;;17.63;7.77;;;1.70;99.90;;;;;;5064980;28;20024;-84
2021/12/07 07:47:59;;;;;;;19.17;8.13;;;2.40;99.90;;;;;;5028872;28;20041;-84
2021/12/07 07:50:25;;;;;;;16.98;7.40;;;3.40;99.90;;;;;;5047923;28;20151;-83
2021/12/07 07:53:03;;;;;;;17.77;7.35;;;2.40;99.90;;;;;;5065448;28;20244;-84
2021/12/07 07:55:29;;;;;;;17.20;7.40;;;2.40;99.90;;;;;;5060776;28;20021;-84
2021/12/07 07:57:55;;;;;;;18.92;8.23;;;3.80;99.90;;;;;;5064472;28;20067;-84
2021/12/07 08:00:24;;;;;;;16.00;7.20;;;;;;;;;;5029788;28;20283;-84
2021/12/07 08:02:53;;;;;;;17.42;8.18;;;2.40;99.90;;;;;;5027438;28;20029;-84
2021/12/07 08:05:19;;;;;;;17.45;7.30;;;2.40;99.90;;;;;;5047978;28;20040;-84
2021/12/07 08:07:47;;;;;;;21.50;7.43;;;2.40;99.90;;;;;;5058805;28;20251;-85
2021/12/07 08:10:18;;;;;;;19.17;7.50;;;2.40;99.90;;;;;;5047813;28;20056;-85
2021/12/07 08:12:44;;;;;;;18.08;7.07;;;;;;;;;;5064900;28;20149;-84
2021/12/07 08:15:18;;;;;;;16.35;7.63;;;2.40;99.90;;;;;;5047777;28;20040;-84
2021/12/07 08:17:47;;;;;;;17.63;7.65;;;2.40;99.90;;;;;;5062588;28;20037;-84
2021/12/07 08:20:19;;;;;;;19.08;7.68;;;;;;;;;;5022254;28;20053;-84
2021/12/07 08:22:48;;;;;;;22.50;8.23;;;2.40;99.90;;;;;;5059196;28;20863;-84
2021/12/07 08:25:17;;;;;;;19.90;8.63;;;2.40;99.90;;;;;;5063848;28;20268;-85
2021/12/07 08:27:43;;;;;;;20.75;8.07;;;2.40;99.90;;;;;;5047050;28;20065;-84
2021/12/07 08:30:17;;;;;;;17.15;8.32;;;3.30;99.90;;;;;;5063397;28;20099;-84
2021/12/07 08:32:47;;;;;;;19.33;7.60;;;0.70;99.90;;;;;;5048000;28;20198;-85
2021/12/07 08:35:22;;;;;;;18.25;7.40;;;2.30;99.90;;;;;;5033114;28;20160;-84
2021/12/07 08:37:48;;;;;;;16.25;7.65;;;2.40;99.90;;;;;;5063882;28;20097;-85
2021/12/07 08:40:28;;;;;;;18.40;7.47;;;2.40;99.90;;;;;;5063836;28;20028;-84
2021/12/07 08:43:07;;;;;;;17.90;7.28;;;2.40;99.90;;;;;;5047683;28;20029;-84
2021/12/07 08:45:33;;;;;;;17.10;7.43;;;2.40;99.90;;;;;;5046657;28;20125;-85
2021/12/07 08:48:14;;;;;;;19.52;7.30;;;3.70;99.90;;;;;;5047012;28;20188;-84
2021/12/07 08:50:42;;;;;;;18.92;8.20;;;2.40;99.90;;;;;;5040139;28;20035;-84
2021/12/07 08:53:15;;;;;;;20.23;7.32;;;2.40;99.90;;;;;;5047405;28;20031;-85
2021/12/07 09:01:24;;;;;;;18.88;7.65;;;2.30;99.90;;;;;;5055616;28;20322;-85
2021/12/07 09:03:54;;;;;;;18.83;7.63;;;2.50;99.90;;;;;;5064266;28;20013;-84
2021/12/07 09:06:20;;;;;;;20.38;7.28;;;2.60;99.90;;;;;;5038733;28;20028;-83
2021/12/07 09:08:52;;;;;;;19.17;7.57;;;2.70;99.90;;;;;;5010484;28;20098;-84
2021/12/07 09:11:24;;;;;;;17.60;7.13;;;2.60;99.90;;;;;;5045979;28;20068;-85
2021/12/07 09:13:50;;;;;;;15.68;7.70;;;2.70;99.90;;;;;;5063883;28;20031;-84
2021/12/07 09:16:18;;;;;;;19.75;6.85;;;4.20;99.90;;;;;;5027288;28;20021;-84
2021/12/07 09:18:45;;;;;;;14.65;6.60;;;2.80;99.90;;;;;;5046904;28;20047;-84
2021/12/07 09:21:11;;;;;;;16.15;7.53;;;4.60;99.90;;;;;;5062359;28;20021;-84
2021/12/07 09:23:38;;;;;;;19.70;7.70;;;2.90;99.90;;;;;;5060857;28;20021;-85
2021/12/07 09:26:10;;;;;;;16.73;7.55;;;3.20;99.90;;;;;;5021180;28;20224;-84
2021/12/07 09:28:45;;;;;;;19.58;7.13;;;3.00;99.90;;;;;;5038417;28;20052;-85
2021/12/07 09:31:23;;;;;;;18.70;7.80;;;3.10;99.90;;;;;;5022715;28;20097;-84
2021/12/07 09:33:55;;;;;;;17.10;7.20;;;3.10;99.90;;;;;;5057272;28;20045;-84
2021/12/07 09:36:21;;;;;;;15.10;6.43;;;;;;;;;;5046581;28;20031;-84
2021/12/07 09:38:52;;;;;;;17.50;7.55;;;3.30;99.90;;;;;;5045528;28;20047;-84
2021/12/07 09:41:20;;;;;;;19.55;7.53;;;3.20;99.90;;;;;;5059270;28;20021;-84
2021/12/07 09:43:46;;;;;;;19.35;7.78;;;3.30;99.90;;;;;;5058538;28;20021;-84
2021/12/07 09:46:16;;;;;;;20.10;7.78;;;3.40;99.90;;;;;;5061817;28;20183;-84
2021/12/07 09:48:45;;;;;;;16.60;7.15;;;3.40;99.90;;;;;;5024909;28;20042;-85
2021/12/07 09:51:16;;;;;;;16.58;7.07;;;3.50;99.90;;;;;;5061542;28;20224;-84
2021/12/07 09:53:43;;;;;;;17.98;6.90;;;3.50;99.90;;;;;;5034410;28;20263;-83
2021/12/07 09:56:09;;;;;;;20.88;7.13;;;3.50;99.90;;;;;;5034822;28;20025;-85
2021/12/07 09:58:39;;;;;;;16.35;6.60;;;3.50;99.90;;;;;;5044679;28;20048;-84
2021/12/07 10:01:23;;;;;;;15.13;6.63;;;3.40;99.90;;;;;;5062529;28;20287;-83
2021/12/07 10:03:54;;;;;;;18.92;7.45;;;3.50;99.90;;;;;;5017769;28;20021;-83
2021/12/07 10:06:21;;;;;;;17.23;6.95;;;3.50;99.90;;;;;;5062034;28;20420;-82
2021/12/07 10:08:47;;;;;;;18.33;6.57;;;3.70;99.90;;;;;;5062051;28;20032;-83
2021/12/07 10:11:17;;;;;;;16.63;6.80;;;3.60;99.90;;;;;;5061534;28;20271;-83
2021/12/07 10:13:54;;;;;;;16.88;6.85;;;3.70;99.90;;;;;;5044856;28;20074;-83
2021/12/07 10:16:22;;;;;;;17.08;7.15;;;3.80;99.90;;;;;;5040830;28;20025;-84
2021/12/07 10:18:48;;;;;;;18.90;6.88;;;3.90;99.90;;;;;;5044393;28;20020;-84
2021/12/07 10:21:27;;;;;;;14.68;6.38;;;4.50;99.90;;;;;;5024083;28;20025;-84
2021/12/07 10:24:21;;;;;;;18.77;7.05;;;4.10;99.90;;;;;;5053621;28;20238;-84
2021/12/07 10:26:48;;;;;;;18.75;6.20;;;4.10;99.90;;;;;;5055833;28;20264;-83
2021/12/07 10:29:20;;;;;;;17.40;6.70;;;4.00;99.90;;;;;;5061423;28;20065;-84
2021/12/07 10:31:52;;;;;;;16.75;6.35;;;4.00;99.90;;;;;;5060333;28;20172;-84
2021/12/07 10:34:29;;;;;;;14.65;5.70;;;4.40;99.90;;;;;;5044457;28;20067;-83
2021/12/07 10:37:18;;;;;;;17.17;6.00;;;4.00;99.90;;;;;;5060371;28;20033;-84
2021/12/07 10:39:49;;;;;;;16.42;6.38;;;3.90;99.90;;;;;;5062703;28;20258;-84
2021/12/07 10:42:29;;;;;;;16.17;5.78;;;4.10;99.90;;;;;;5042052;28;20056;-83
2021/12/07 10:45:09;;;;;;;18.15;6.10;;;4.20;99.90;;;;;;5041784;28;20025;-85
2021/12/07 10:47:35;;;;;;;17.75;5.70;;;4.30;99.90;;;;;;5044655;28;20048;-84
2021/12/07 10:50:06;;;;;;;12.85;5.45;;;4.30;99.90;;;;;;5060430;28;20195;-84
2021/12/07 10:52:35;;;;;;;14.13;5.22;;;4.50;99.90;;;;;;5061202;28;20295;-83
2021/12/07 10:55:40;;;;;;;15.18;5.45;;;4.60;99.90;;;;;;5044296;28;20099;-84
2021/12/07 10:58:12;;;;;;;13.45;5.00;;;4.90;99.90;;;;;;4978569;28;20033;-84
2021/12/07 11:00:51;;;;;;;14.30;5.23;;;4.80;99.90;;;;;;4981655;28;20026;-84
2021/12/07 11:03:29;;;;;;;16.30;5.40;;;4.90;99.90;;;;;;5018580;28;20036;-84
2021/12/07 11:06:01;;;;;;;14.95;5.22;;;5.00;99.90;;;;;;5049938;28;20037;-84
2021/12/07 11:08:42;;;;;;;15.55;4.90;;;5.10;99.90;;;;;;5044655;28;20082;-83
2021/12/07 11:11:08;;;;;;;14.38;5.55;;;5.10;99.90;;;;;;5044583;28;20021;-84
2021/12/07 11:13:38;;;;;;;16.85;4.95;;;5.20;99.90;;;;;;5044748;28;20013;-84
2021/12/07 11:16:11;;;;;;;13.90;4.65;;;5.20;99.90;;;;;;5044460;28;20285;-83
2021/12/07 11:18:54;;;;;;;18.25;5.25;;;5.60;99.90;;;;;;5060075;28;20279;-82
2021/12/07 11:21:30;;;;;;;13.00;4.65;;;6.30;99.90;;;;;;5059677;28;20021;-83
2021/12/07 11:23:58;;;;;;;13.68;4.60;;;6.20;99.90;;;;;;5060447;28;20037;-85
2021/12/07 11:31:45;;;;;;;14.65;5.38;;;4.60;99.90;;;;;;5060835;28;20092;-84
2021/12/07 11:34:24;;;;;;;16.98;4.13;;;5.50;99.90;;;;;;5044727;28;20035;-84
2021/12/07 11:37:01;;;;;;;12.23;4.35;;;5.10;99.90;;;;;;5059731;28;20259;-83
2021/12/07 11:39:35;;;;;;;18.08;5.15;;;5.50;99.90;;;;;;5057314;28;20025;-84
2021/12/07 11:42:06;;;;;;;14.15;4.70;;;5.50;99.90;;;;;;5041691;28;20248;-84
2021/12/07 11:44:49;;;;;;;12.73;4.78;;;5.40;99.90;;;;;;5043778;28;20044;-83
2021/12/07 11:47:15;;;;;;;14.10;4.43;;;5.50;99.90;;;;;;5042392;28;20059;-83
2021/12/07 11:49:41;;;;;;;16.48;4.72;;;5.40;99.90;;;;;;5060052;28;20029;-83
2021/12/07 11:52:08;;;;;;;14.27;4.25;;;6.30;99.90;;;;;;5024592;28;20033;-84
2021/12/07 11:54:42;;;;;;;16.73;4.40;;;5.80;99.90;;;;;;5038356;28;20271;-83
2021/12/07 11:57:14;;;;;;;17.83;4.72;;;5.60;99.90;;;;;;5059813;28;20263;-84
2021/12/07 11:59:45;;;;;;;16.27;4.68;;;5.70;99.90;;;;;;5053870;28;20033;-82
2021/12/07 12:02:11;;;;;;;14.30;4.80;;;5.70;99.90;;;;;;5043444;28;20032;-83
2021/12/07 12:04:46;;;;;;;13.32;4.70;;;5.80;99.90;;;;;;5061705;28;20032;-83
2021/12/07 12:07:21;;;;;;;13.23;4.35;;;5.80;99.90;;;;;;5048236;28;20021;-83
2021/12/07 12:09:50;;;;;;;17.30;4.50;;;5.90;99.90;;;;;;5062772;28;20020;-83
2021/12/07 12:12:57;;;;;;;15.10;4.68;;;5.90;99.90;;;;;;5063625;28;20025;-82
2021/12/07 12:15:59;;;;;;;13.10;3.88;;;5.80;99.90;;;;;;5062242;28;20055;-83
2021/12/07 12:19:08;;;;;;;17.55;4.57;;;5.90;99.90;;;;;;5047731;28;20040;-83
2021/12/07 12:21:47;;;;;;;13.50;4.22;;;5.90;99.90;;;;;;5046519;28;20031;-84
2021/12/07 12:24:44;;;;;;;18.13;4.85;;;6.00;99.90;;;;;;5063504;28;20129;-83
2021/12/07 12:27:19;;;;;;;17.08;4.22;;;6.00;99.90;;;;;;5060588;28;20029;-84
2021/12/07 12:29:50;;;;;;;11.95;4.00;;;6.00;99.90;;;;;;5048638;28;20025;-83
2021/12/07 12:32:37;;;;;;;14.48;4.30;;;6.00;99.90;;;;;;5047822;28;20071;-83
2021/12/07 12:35:05;;;;;;;15.35;4.50;;;6.00;99.90;;;;;;5035179;28;20048;-83
2021/12/07 12:37:35;;;;;;;17.60;4.70;;;5.90;99.90;;;;;;5061807;28;20033;-84
2021/12/07 12:40:20;;;;;;;14.98;4.65;;;6.00;99.90;;;;;;5062929;28;20028;-83
2021/12/07 12:42:49;;;;;;;11.65;4.10;;;6.10;99.90;;;;;;5064163;28;20043;-84
2021/12/07 12:45:28;;;;;;;12.63;4.40;;;6.10;99.90;;;;;;5063564;28;20243;-82
2021/12/07 12:48:09;;;;;;;11.50;3.70;;;6.10;99.90;;;;;;5062692;28;20100;-83
2021/12/07 12:50:44;;;;;;;15.13;4.13;;;4.20;99.90;;;;;;5060750;28;20047;-84
2021/12/07 12:53:12;;;;;;;14.70;3.92;;;6.10;99.90;;;;;;5059217;28;20032;-83
2021/12/07 12:55:46;;;;;;;12.93;3.97;;;6.00;99.90;;;;;;5063206;28;20037;-84
2021/12/07 12:58:35;;;;;;;13.20;3.88;;;6.00;99.90;;;;;;5037176;28;20307;-83
2021/12/07 13:01:21;;;;;;;12.38;3.70;;;6.00;99.90;;;;;;5047805;28;20044;-84
2021/12/07 13:03:59;;;;;;;14.15;4.15;;;6.00;99.90;;;;;;5060901;28;20256;-83
2021/12/07 13:06:26;;;;;;;14.65;3.75;;;6.00;99.90;;;;;;5063621;28;20025;-83
2021/12/07 13:08:55;;;;;;;14.73;3.92;;;6.00;99.90;;;;;;5063079;28;20020;-83
2021/12/07 13:11:42;;;;;;;13.55;4.13;;;6.00;99.90;;;;;;5044853;28;20017;-84
2021/12/07 13:14:26;;;;;;;16.17;4.93;;;6.00;99.90;;;;;;5062857;28;20032;-84
2021/12/07 13:16:54;;;;;;;14.13;4.00;;;6.00;99.90;;;;;;5046742;28;20093;-83
2021/12/07 13:19:20;;;;;;;17.08;4.25;;;6.00;99.90;;;;;;5062709;28;20276;-82
2021/12/07 13:21:49;;;;;;;15.13;4.03;;;6.00;99.90;;;;;;5045197;28;20017;-83
2021/12/07 13:24:34;;;;;;;13.60;4.43;;;6.00;99.90;;;;;;5045068;28;20251;-83
2021/12/07 13:27:10;;;;;;;11.70;4.50;;;6.00;99.90;;;;;;5045627;28;20032;-83
2021/12/07 13:29:36;;;;;;;11.73;4.13;;;6.00;99.90;;;;;;5030296;28;20082;-82
2021/12/07 13:32:12;;;;;;;12.68;4.00;;;6.00;99.90;;;;;;5045619;28;20047;-83
2021/12/07 13:34:39;;;;;;;13.25;4.40;;;6.00;99.90;;;;;;5045720;28;20327;-83
2021/12/07 13:37:06;;;;;;;12.05;4.32;;;6.10;99.90;;;;;;5006443;28;20025;-83
2021/12/07 13:39:42;;;;;;;15.07;4.65;;;6.00;99.90;;;;;;5060958;28;20029;-83
2021/12/07 13:42:23;;;;;;;15.77;5.05;;;6.00;99.90;;;;;;5062027;28;20309;-83
2021/12/07 13:44:57;;;;;;;14.02;4.35;;;7.10;99.90;;;;;;5045193;28;20028;-84
2021/12/07 13:47:29;;;;;;;14.48;4.95;;;6.10;99.90;;;;;;5045077;28;20092;-83
2021/12/07 13:50:06;;;;;;;16.40;4.50;;;6.10;99.90;;;;;;5061894;28;20294;-82
2021/12/07 13:52:41;;;;;;;11.02;4.07;;;7.20;99.90;;;;;;5062567;28;20058;-83
2021/12/07 13:55:15;;;;;;;11.70;4.18;;;6.10;99.90;;;;;;5044465;28;20045;-84
2021/12/07 13:57:44;;;;;;;12.90;4.22;;;6.00;99.90;;;;;;5063424;28;20031;-83
2021/12/07 14:00:36;;;;;;;14.15;4.65;;;6.00;99.90;;;;;;5061457;28;20067;-84
2021/12/07 14:03:11;;;;;;;13.70;4.32;;;5.90;99.90;;;;;;5072742;28;20073;-83
2021/12/07 14:05:42;;;;;;;14.38;4.70;;;;;;;;;;5043180;28;20077;-83
2021/12/07 14:08:19;;;;;;;15.52;4.35;;;5.80;99.90;;;;;;5045438;28;20220;-83
2021/12/07 14:10:48;;;;;;;15.15;4.25;;;5.80;99.90;;;;;;5060779;28;20029;-83
2021/12/07 14:13:15;;;;;;;14.88;4.47;;;5.70;99.90;;;;;;5042880;28;20021;-82
2021/12/07 14:15:44;;;;;;;14.95;4.25;;;7.00;99.90;;;;;;5028452;28;20043;-84
2021/12/07 14:18:23;;;;;;;13.52;4.60;;;5.60;99.90;;;;;;5061831;28;20056;-84
2021/12/07 14:20:54;;;;;;;14.80;4.70;;;5.50;99.90;;;;;;5044061;28;20032;-83
2021/12/07 14:23:27;;;;;;;13.93;4.90;;;5.70;99.90;;;;;;5062860;28;20013;-83
2021/12/07 14:26:15;;;;;;;14.73;5.10;;;5.40;99.90;;;;;;5060582;28;20099;-84
2021/12/07 14:28:46;;;;;;;17.02;4.82;;;5.30;99.90;;;;;;5060571;28;20252;-84
2021/12/07 14:31:28;;;;;;;17.25;5.05;;;5.30;99.90;;;;;;5043500;28;20243;-83
2021/12/07 14:34:00;;;;;;;16.27;4.70;;;5.20;99.90;;;;;;5061341;28;20059;-83
2021/12/07 14:36:34;;;;;;;14.93;5.10;;;5.20;99.90;;;;;;5061126;28;20094;-83
2021/12/07 14:39:07;;;;;;;13.95;5.07;;;5.10;99.90;;;;;;5062619;28;20329;-84
2021/12/07 14:41:42;;;;;;;15.90;5.53;;;5.30;99.90;;;;;;5059866;28;20100;-84
2021/12/07 14:44:09;;;;;;;16.60;5.50;;;5.00;99.90;;;;;;5044535;28;20263;-82
2021/12/07 14:46:41;;;;;;;16.77;5.50;;;;;;;;;;5060677;28;20260;-83
2021/12/07 14:49:11;;;;;;;18.17;5.47;;;;;;;;;;5044277;28;20043;-83
2021/12/07 14:51:41;;;;;;;16.47;5.77;;;4.80;99.90;;;;;;5041758;28;20041;-83
2021/12/07 14:54:14;;;;;;;16.50;6.10;;;4.80;99.90;;;;;;5045609;28;20526;-83
2021/12/07 14:56:50;;;;;;;20.50;6.53;;;4.70;99.90;;;;;;5061111;28;20104;-83